Occitan Key — C6CR5 — position and weather

sailwx.info

Track history (hours):
 
Tides and Currents Weather Stations Pressure Air Temp Water Temp Dewpoint Dewpoint Depression Visibility Wind Speed Wind Dir Waves Ship Positions

Occitan Key

Last reported at 2018-Feb-13 21:48 UTC. Time now 2018-Feb-19 06:21 UTC.
Position N 35°58' W 005°36'.

Length 165 m; draft 6.4 m.

Type: Cargo ship. MMSI: 311000551.

Date/timePositionNaut miles runAvg speedWind from/ knotsBaromVisibWave heightAir tempDewpointWater temp
2018-Feb-13 21:48N 35°58' W 005°36'412.3
2018-Feb-13 21:30N 35°58' W 005°32'611.5
2018-Feb-13 21:00N 35°60' W 005°25'4 8.5
2018-Feb-13 20:30N 35°60' W 005°20'5 8.9
2018-Feb-13 20:00N 35°55' W 005°19'1 1.5
2018-Feb-13 19:28N 35°55' W 005°19'0 0.1
2018-Feb-13 18:58N 35°55' W 005°19'0 0.1
2018-Feb-13 18:28N 35°55' W 005°19'0 0.2
2018-Feb-13 17:58N 35°55' W 005°19'0 0.2
2018-Feb-13 17:28N 35°55' W 005°19'0 0.1
2018-Feb-13 16:55N 35°55' W 005°19'0 0.0
2018-Feb-13 16:28N 35°55' W 005°19'0 0.0
2018-Feb-13 15:58N 35°55' W 005°19'0 0.0
2018-Feb-13 15:28N 35°55' W 005°19'0 0.0
2018-Feb-13 14:58N 35°55' W 005°19'0 0.0
2018-Feb-13 14:28N 35°55' W 005°19'0 0.0
2018-Feb-13 13:58N 35°55' W 005°19'0 0.0
2018-Feb-13 13:28N 35°55' W 005°19'0 0.1
2018-Feb-13 12:58N 35°55' W 005°19'0 0.0
2018-Feb-13 12:28N 35°55' W 005°19'0 0.1
2018-Feb-13 11:58N 35°55' W 005°19'0 0.0
2018-Feb-13 11:28N 35°55' W 005°19'0 0.0
2018-Feb-13 10:58N 35°55' W 005°19'0 0.0
2018-Feb-13 10:28N 35°55' W 005°19'0 0.1
2018-Feb-13 09:58N 35°55' W 005°19'0 0.0
2018-Feb-13 09:28N 35°55' W 005°19'0 0.0
2018-Feb-13 08:58N 35°55' W 005°19'0 0.1
2018-Feb-13 08:28N 35°55' W 005°19'0 0.1
2018-Feb-13 07:58N 35°55' W 005°19'0 0.0
2018-Feb-13 07:28N 35°55' W 005°19'0 0.0
2018-Feb-13 07:01N 35°55' W 005°19'1 2.8
2018-Feb-13 06:31N 35°55' W 005°18'2 3.8
2018-Feb-13 06:01N 35°56' W 005°16'4 7.4
2018-Feb-13 05:30N 35°57' W 005°11'  
2018-Feb-08 01:16N 37°44' E 024°16'713.0
2018-Feb-08 00:45N 37°49' E 024°22'512.9
2018-Feb-08 00:20N 37°53' E 024°27'261 8.4
2018-Feb-06 17:22N 40°25' E 028°60'3 9.0
2018-Feb-06 17:00N 40°25' E 029°04'1 0.0
2018-Feb-06 03:46N 40°25' E 029°05'0 0.0
2018-Feb-06 03:28N 40°25' E 029°05'0 0.0
2018-Feb-06 02:52N 40°25' E 029°05'0 0.0
2018-Feb-06 02:10N 40°25' E 029°05'0 0.0
2018-Feb-05 21:22N 40°25' E 029°05'0 0.0
2018-Feb-05 13:28N 40°25' E 029°05'0 0.0
2018-Feb-05 12:34N 40°25' E 029°05'0 0.1
2018-Feb-05 12:28N 40°25' E 029°05'0 0.0
2018-Feb-05 11:58N 40°25' E 029°05'0 0.0
2018-Feb-05 11:16N 40°25' E 029°05'0 0.0
2018-Feb-05 09:24N 40°25' E 029°05'0 0.0
2018-Feb-05 08:54N 40°25' E 029°05'0 0.0
2018-Feb-05 08:24N 40°25' E 029°05'0 0.0
2018-Feb-05 07:54N 40°25' E 029°05'0 0.0
2018-Feb-05 07:30N 40°25' E 029°05'0 0.0
2018-Feb-05 06:54N 40°25' E 029°05'0 0.0
2018-Feb-05 06:24N 40°25' E 029°05'  
Track history (hours):
 
Tides and Currents Weather Stations Pressure Air Temp Water Temp Dewpoint Dewpoint Depression Visibility Wind Speed Wind Dir Waves Ship Positions

Occitan Key

Last reported at 2018-Feb-13 21:48 UTC. Time now 2018-Feb-19 06:21 UTC.
Position N 35°58' W 005°36'.

Length 165 m; draft 6.4 m.

Type: Cargo ship. MMSI: 311000551.

Date/timePositionNaut miles runAvg speedWind from/ knotsBaromVisibWave heightAir tempDewpointWater temp
2018-Feb-13 21:48N 35°58' W 005°36'412.3
2018-Feb-13 21:30N 35°58' W 005°32'611.5
2018-Feb-13 21:00N 35°60' W 005°25'4 8.5
2018-Feb-13 20:30N 35°60' W 005°20'5 8.9
2018-Feb-13 20:00N 35°55' W 005°19'1 1.5
2018-Feb-13 19:28N 35°55' W 005°19'0 0.1
2018-Feb-13 18:58N 35°55' W 005°19'0 0.1
2018-Feb-13 18:28N 35°55' W 005°19'0 0.2
2018-Feb-13 17:58N 35°55' W 005°19'0 0.2
2018-Feb-13 17:28N 35°55' W 005°19'0 0.1
2018-Feb-13 16:55N 35°55' W 005°19'0 0.0
2018-Feb-13 16:28N 35°55' W 005°19'0 0.0
2018-Feb-13 15:58N 35°55' W 005°19'0 0.0
2018-Feb-13 15:28N 35°55' W 005°19'0 0.0
2018-Feb-13 14:58N 35°55' W 005°19'0 0.0
2018-Feb-13 14:28N 35°55' W 005°19'0 0.0
2018-Feb-13 13:58N 35°55' W 005°19'0 0.0
2018-Feb-13 13:28N 35°55' W 005°19'0 0.1
2018-Feb-13 12:58N 35°55' W 005°19'0 0.0
2018-Feb-13 12:28N 35°55' W 005°19'0 0.1
2018-Feb-13 11:58N 35°55' W 005°19'0 0.0
2018-Feb-13 11:28N 35°55' W 005°19'0 0.0
2018-Feb-13 10:58N 35°55' W 005°19'0 0.0
2018-Feb-13 10:28N 35°55' W 005°19'0 0.1
2018-Feb-13 09:58N 35°55' W 005°19'0 0.0
2018-Feb-13 09:28N 35°55' W 005°19'0 0.0
2018-Feb-13 08:58N 35°55' W 005°19'0 0.1
2018-Feb-13 08:28N 35°55' W 005°19'0 0.1
2018-Feb-13 07:58N 35°55' W 005°19'0 0.0
2018-Feb-13 07:28N 35°55' W 005°19'0 0.0
2018-Feb-13 07:01N 35°55' W 005°19'1 2.8
2018-Feb-13 06:31N 35°55' W 005°18'2 3.8
2018-Feb-13 06:01N 35°56' W 005°16'4 7.4
2018-Feb-13 05:30N 35°57' W 005°11'  
2018-Feb-08 01:16N 37°44' E 024°16'713.0
2018-Feb-08 00:45N 37°49' E 024°22'512.9
2018-Feb-08 00:20N 37°53' E 024°27'261 8.4
2018-Feb-06 17:22N 40°25' E 028°60'3 9.0
2018-Feb-06 17:00N 40°25' E 029°04'1 0.0
2018-Feb-06 03:46N 40°25' E 029°05'0 0.0
2018-Feb-06 03:28N 40°25' E 029°05'0 0.0
2018-Feb-06 02:52N 40°25' E 029°05'0 0.0
2018-Feb-06 02:10N 40°25' E 029°05'0 0.0
2018-Feb-05 21:22N 40°25' E 029°05'0 0.0
2018-Feb-05 13:28N 40°25' E 029°05'0 0.0
2018-Feb-05 12:34N 40°25' E 029°05'0 0.1
2018-Feb-05 12:28N 40°25' E 029°05'0 0.0
2018-Feb-05 11:58N 40°25' E 029°05'0 0.0
2018-Feb-05 11:16N 40°25' E 029°05'0 0.0
2018-Feb-05 09:24N 40°25' E 029°05'0 0.0
2018-Feb-05 08:54N 40°25' E 029°05'0 0.0
2018-Feb-05 08:24N 40°25' E 029°05'0 0.0
2018-Feb-05 07:54N 40°25' E 029°05'0 0.0
2018-Feb-05 07:30N 40°25' E 029°05'0 0.0
2018-Feb-05 06:54N 40°25' E 029°05'0 0.0
2018-Feb-05 06:24N 40°25' E 029°05'  

Dump ship's entire track history